Time;durP1;ratioP1;P1;durP2;ratioP2;P2;SDS_P1;SDS_P2;PMS_P1;PMS_P2;Temp;Humidity;BMP_temperature;BMP_pressure;BME280_temperature;BME280_humidity;BME280_pressure;Samples;Min_cycle;Max_cycle;Signal;HPM_P1;HPM_P2
2021/11/06 00:00:51;;;;;;;21.35;15.45;;;;;;;4.73;81.25;101167.97;1088249;54;20038;-77
2021/11/06 00:01:55;;;;;;;24.38;16.10;;;;;;;4.77;80.79;101173.03;1090146;46;20038;-77
2021/11/06 00:02:57;;;;;;;21.75;15.82;;;;;;;4.80;80.81;101172.88;1087821;54;20057;-76
2021/11/06 00:04:01;;;;;;;27.38;17.05;;;;;;;4.78;80.80;101169.44;1087248;54;20043;-77
2021/11/06 00:05:04;;;;;;;25.65;16.63;;;;;;;4.75;80.70;101171.41;1087369;54;20034;-77
2021/11/06 00:06:08;;;;;;;28.58;18.65;;;;;;;4.72;80.74;101166.25;1087410;54;20030;-76
2021/11/06 00:07:11;;;;;;;50.58;20.60;;;;;;;4.58;81.32;101177.56;1087459;54;20034;-77
2021/11/06 00:08:16;;;;;;;26.92;18.02;;;;;;;4.62;81.19;101174.69;1087334;54;20090;-77
2021/11/06 00:09:18;;;;;;;38.85;19.27;;;;;;;4.57;81.50;101176.72;1087433;46;20031;-77
2021/11/06 00:10:22;;;;;;;25.00;18.73;;;;;;;4.57;81.33;101175.84;1087994;39;20356;-76
2021/11/06 00:11:26;;;;;;;27.08;18.33;;;;;;;4.56;81.47;101172.34;1087527;54;20022;-78
2021/11/06 00:12:28;;;;;;;56.13;19.48;;;;;;;4.47;81.40;101181.63;1087681;54;20046;-77
2021/11/06 00:13:34;;;;;;;28.63;17.95;;;;;;;4.51;81.64;101183.19;1087972;54;20131;-77
2021/11/06 00:14:36;;;;;;;29.65;16.88;;;;;;;4.50;81.59;101181.47;1087762;54;20054;-77
2021/11/06 00:15:40;;;;;;;40.50;16.08;;;;;;;4.52;81.61;101184.91;1087590;54;20053;-77
2021/11/06 00:16:42;;;;;;;22.35;15.70;;;;;;;4.58;81.53;101185.50;1087640;54;20039;-77
2021/11/06 00:17:46;;;;;;;38.90;14.50;;;;;;;4.59;81.47;101184.56;1087685;54;20042;-77
2021/11/06 00:18:48;;;;;;;28.67;14.93;;;;;;;4.58;81.48;101183.69;1087452;54;20058;-77
2021/11/06 00:19:52;;;;;;;24.75;15.55;;;;;;;4.59;81.52;101179.28;1087654;54;20023;-77
2021/11/06 00:20:56;;;;;;;19.05;14.38;;;;;;;4.60;81.25;101179.19;1087688;54;20023;-78
2021/11/06 00:21:58;;;;;;;28.90;14.43;;;;;;;4.63;81.22;101181.69;1087673;54;20042;-77
2021/11/06 00:23:02;;;;;;;22.30;13.30;;;;;;;4.64;81.34;101177.25;1088596;46;20090;-76
2021/11/06 00:24:04;;;;;;;24.27;14.57;;;;;;;4.66;81.36;101175.38;1087796;54;20086;-77
2021/11/06 00:25:10;;;;;;;28.85;15.25;;;;;;;4.64;81.40;101177.25;1089331;39;20645;-78
2021/11/06 00:26:15;;;;;;;21.67;14.70;;;;;;;4.66;81.38;101181.56;1087708;46;20034;-77
2021/11/06 00:27:16;;;;;;;31.17;14.30;;;;;;;4.64;81.36;101177.25;1087475;54;20095;-77
2021/11/06 00:28:20;;;;;;;29.25;17.15;;;;;;;4.60;81.47;101175.69;1087467;54;20094;-77
2021/11/06 00:29:27;;;;;;;36.40;16.98;;;;;;;4.56;81.40;101187.38;1087406;54;20045;-77
2021/11/06 00:30:29;;;;;;;39.00;17.92;;;;;;;4.55;81.59;101188.31;1088959;39;20579;-76
2021/11/06 00:31:33;;;;;;;81.30;21.45;;;;;;;4.48;81.54;101185.13;1087525;54;20042;-77
2021/11/06 00:32:35;;;;;;;44.63;18.55;;;;;;;4.49;81.83;101195.63;1087450;54;20699;-77
2021/11/06 00:33:39;;;;;;;33.92;16.95;;;;;;;4.51;81.78;101184.97;1087373;54;20036;-77
2021/11/06 00:34:41;;;;;;;37.70;18.17;;;;;;;4.51;81.75;101193.78;1087501;54;20037;-77
2021/11/06 00:35:45;;;;;;;23.92;16.65;;;;;;;4.51;81.61;101188.47;1087573;54;20034;-77
2021/11/06 00:36:46;;;;;;;29.58;16.05;;;;;;;4.51;81.81;101198.19;1087561;54;20039;-76
2021/11/06 00:37:51;;;;;;;57.45;19.83;;;;;;;4.45;81.94;101188.78;1087563;54;20034;-77
2021/11/06 00:38:53;;;;;;;32.97;17.30;;;;;;;4.41;82.13;101195.16;1087878;39;20735;-78
2021/11/06 00:39:58;;;;;;;123.40;23.33;;;;;;;4.30;82.27;101192.19;1087636;54;20713;-77
2021/11/06 00:40:59;;;;;;;50.67;19.98;;;;;;;4.27;82.48;101185.28;1087704;54;20031;-77
2021/11/06 00:42:03;;;;;;;101.65;22.60;;;;;;;4.28;82.54;101187.00;1091141;39;20685;-76
2021/11/06 00:43:08;;;;;;;104.40;22.45;;;;;;;4.24;82.18;101195.16;1087710;54;20046;-77
2021/11/06 00:44:10;;;;;;;67.15;20.17;;;;;;;4.17;82.31;101190.16;1088633;46;20042;-75
2021/11/06 00:45:18;;;;;;;81.65;22.38;;;;;;;4.11;82.96;101195.75;1087598;54;20034;-77
2021/11/06 00:46:19;;;;;;;103.85;22.98;;;;;;;4.05;82.83;101193.41;1087672;54;20041;-77
2021/11/06 00:47:23;;;;;;;51.33;20.33;;;;;;;4.05;82.94;101188.97;1087731;54;20037;-77
2021/11/06 00:48:27;;;;;;;32.72;17.83;;;;;;;4.06;83.14;101189.84;1087634;54;20042;-77
2021/11/06 00:49:29;;;;;;;25.48;17.00;;;;;;;4.08;83.01;101190.59;1087384;54;20035;-76
2021/11/06 00:50:34;;;;;;;26.58;17.48;;;;;;;4.12;82.91;101181.59;1087658;54;20094;-76
2021/11/06 00:51:36;;;;;;;35.42;17.10;;;;;;;4.15;83.15;101192.03;1087631;54;20026;-76
2021/11/06 00:52:41;;;;;;;44.63;18.73;;;;;;;4.16;83.13;101188.44;1087584;54;20026;-77
2021/11/06 00:53:43;;;;;;;30.25;16.67;;;;;;;4.19;83.06;101190.09;1087556;54;20038;-77
2021/11/06 00:54:47;;;;;;;27.08;16.70;;;;;;;4.21;82.95;101186.44;1087552;54;20050;-76
2021/11/06 00:55:48;;;;;;;29.70;17.95;;;;;;;4.27;82.80;101192.34;1087591;54;20030;-76
2021/11/06 00:56:53;;;;;;;25.35;17.02;;;;;;;4.29;82.90;101193.13;1087485;54;20066;-77
2021/11/06 00:57:55;;;;;;;32.88;18.38;;;;;;;4.28;83.21;101184.34;1087452;54;20057;-77
2021/11/06 00:58:59;;;;;;;30.13;17.83;;;;;;;4.31;82.81;101185.97;1087759;46;20777;-76
2021/11/06 01:00:01;;;;;;;31.52;17.05;;;;;;;4.29;83.05;101179.88;1087318;54;20030;-77
2021/11/06 01:01:08;;;;;;;24.30;17.33;;;;;;;4.34;82.87;101185.84;1087194;54;20031;-77
2021/11/06 01:02:10;;;;;;;29.77;16.65;;;;;;;4.35;82.97;101192.81;1087225;54;20086;-77
2021/11/06 01:03:15;;;;;;;49.60;17.77;;;;;;;4.37;83.11;101193.59;1087406;54;20026;-77
2021/11/06 01:04:17;;;;;;;28.38;15.75;;;;;;;4.35;83.00;101192.81;1087404;54;20043;-76
2021/11/06 01:05:22;;;;;;;27.80;16.77;;;;;;;4.37;82.87;101190.94;1087354;54;20038;-78
2021/11/06 01:06:24;;;;;;;32.97;15.82;;;;;;;4.39;82.93;101188.25;1087434;54;20035;-76
2021/11/06 01:07:28;;;;;;;28.48;17.10;;;;;;;4.39;82.98;101185.59;1087427;54;20035;-77
2021/11/06 01:08:33;;;;;;;27.80;16.33;;;;;;;4.43;83.14;101195.97;1087692;46;20035;-76
2021/11/06 01:09:35;;;;;;;20.30;14.65;;;;;;;4.44;82.98;101187.06;1087408;54;20039;-77
2021/11/06 01:10:39;;;;;;;27.88;17.30;;;;;;;4.45;83.08;101201.16;1088447;46;20030;-77
2021/11/06 01:11:41;;;;;;;23.20;15.30;;;;;;;4.51;82.88;101199.06;1087366;54;20038;-77
2021/11/06 01:12:47;;;;;;;23.27;15.48;;;;;;;4.53;82.85;101199.81;1087219;54;20095;-77
2021/11/06 01:13:49;;;;;;;23.75;15.20;;;;;;;4.58;82.93;101196.09;1087515;46;20038;-77
2021/11/06 01:14:55;;;;;;;22.55;15.55;;;;;;;4.59;82.85;101195.16;1087971;46;20034;-76
2021/11/06 01:15:56;;;;;;;37.38;17.95;;;;;;;4.55;83.17;101198.91;1087977;46;20049;-77
2021/11/06 01:17:03;;;;;;;22.92;16.02;;;;;;;4.61;83.12;101198.59;1087206;54;20030;-78
2021/11/06 01:18:05;;;;;;;24.65;16.55;;;;;;;4.61;82.87;101203.91;1087150;54;20050;-76
2021/11/06 01:19:09;;;;;;;22.02;15.25;;;;;;;4.67;82.71;101200.94;1087202;54;20035;-77
2021/11/06 01:20:12;;;;;;;24.30;15.57;;;;;;;4.67;82.94;101208.88;1087275;54;20041;-77
2021/11/06 01:21:17;;;;;;;31.48;15.02;;;;;;;4.68;82.95;101207.94;1087381;54;20829;-77
2021/11/06 01:22:19;;;;;;;25.52;15.00;;;;;;;4.70;82.63;101200.78;1090253;39;20291;-76
2021/11/06 01:23:23;;;;;;;21.75;15.27;;;;;;;4.74;82.59;101199.69;1087323;54;20035;-76
2021/11/06 01:24:24;;;;;;;22.42;14.93;;;;;;;4.75;82.63;101200.56;1087379;54;20419;-76
2021/11/06 01:25:29;;;;;;;29.60;15.50;;;;;;;4.76;82.66;101191.66;1087370;54;20651;-77
2021/11/06 01:26:30;;;;;;;28.75;15.98;;;;;;;4.74;82.36;101194.38;1087394;54;20034;-77
2021/11/06 01:27:34;;;;;;;26.13;15.10;;;;;;;4.75;82.56;101196.09;1087518;39;20218;-77
2021/11/06 01:28:36;;;;;;;29.13;16.63;;;;;;;4.72;82.46;101201.56;1087359;54;20046;-77
2021/11/06 01:29:41;;;;;;;43.63;18.25;;;;;;;4.69;82.51;101202.56;1087416;54;20078;-77
2021/11/06 01:30:43;;;;;;;62.45;20.17;;;;;;;4.55;82.66;101201.53;1087315;54;20034;-76
2021/11/06 01:31:47;;;;;;;67.65;21.15;;;;;;;4.56;82.62;101204.13;1087963;46;20087;-77
2021/11/06 01:32:51;;;;;;;36.65;18.00;;;;;;;4.52;82.41;101198.16;1087442;54;20046;-77
2021/11/06 01:33:56;;;;;;;36.80;15.45;;;;;;;4.50;82.62;101207.94;1087411;54;20034;-77
2021/11/06 01:34:57;;;;;;;58.67;17.65;;;;;;;4.47;82.38;101208.09;1087345;54;20037;-76
2021/11/06 01:36:02;;;;;;;54.17;17.95;;;;;;;4.37;82.92;101202.41;1087362;54;20050;-78
2021/11/06 01:37:04;;;;;;;38.17;17.02;;;;;;;4.36;82.90;101195.41;1087289;54;20095;-76
2021/11/06 01:38:08;;;;;;;53.10;18.30;;;;;;;4.35;83.22;101206.06;1087586;46;20041;-76
2021/11/06 01:39:10;;;;;;;22.30;14.13;;;;;;;4.40;83.01;101201.41;1089669;39;20776;-77
2021/11/06 01:40:16;;;;;;;25.85;15.63;;;;;;;4.47;83.36;101205.44;1089957;31;20833;-76
2021/11/06 01:41:18;;;;;;;54.35;17.50;;;;;;;4.38;83.13;101203.25;1087228;54;20034;-77
2021/11/06 01:42:23;;;;;;;22.73;15.00;;;;;;;4.44;83.13;101195.00;1087267;54;20050;-77
2021/11/06 01:43:27;;;;;;;19.70;14.00;;;;;;;4.52;83.18;101200.78;1087350;54;20034;-77
2021/11/06 01:44:30;;;;;;;29.63;13.88;;;;;;;4.56;82.93;101196.19;1087292;54;20043;-77
2021/11/06 01:45:34;;;;;;;53.40;16.08;;;;;;;4.57;82.68;101202.34;1087391;54;20035;-77
2021/11/06 01:46:36;;;;;;;49.25;14.32;;;;;;;4.56;82.72;101195.31;1087319;54;20030;-77
2021/11/06 01:47:40;;;;;;;25.02;14.52;;;;;;;4.53;82.62;101193.69;1087406;54;20057;-78
2021/11/06 01:48:44;;;;;;;30.27;13.77;;;;;;;4.52;82.89;101189.31;1087239;54;20027;-76
2021/11/06 01:49:48;;;;;;;37.70;14.93;;;;;;;4.48;82.56;101188.63;1087134;54;20066;-76
2021/11/06 01:50:53;;;;;;;90.32;20.02;;;;;;;4.37;82.58;101191.81;1087202;54;20046;-77
2021/11/06 01:51:55;;;;;;;58.10;18.45;;;;;;;4.27;82.84;101184.41;1087233;54;20038;-77
2021/11/06 01:52:59;;;;;;;30.52;15.88;;;;;;;4.26;83.07;101190.63;1090428;31;20858;-77
2021/11/06 01:54:00;;;;;;;27.42;16.15;;;;;;;4.29;83.29;101190.47;1087238;54;20046;-77
2021/11/06 01:55:06;;;;;;;25.67;14.38;;;;;;;4.31;83.45;101180.69;1087053;54;20041;-77
2021/11/06 01:56:07;;;;;;;23.52;13.65;;;;;;;4.36;83.65;101184.81;1087227;54;20045;-76
2021/11/06 01:57:12;;;;;;;48.63;15.68;;;;;;;4.29;83.57;101187.84;1087164;54;20058;-78
2021/11/06 01:58:13;;;;;;;81.15;18.90;;;;;;;4.11;84.38;101193.09;1087196;54;20034;-77
2021/11/06 01:59:18;;;;;;;63.55;19.55;;;;;;;4.01;84.47;101191.84;1087351;54;20030;-77
2021/11/06 02:00:22;;;;;;;48.10;18.48;;;;;;;4.07;84.54;101183.59;1092408;39;20566;-77
2021/11/06 02:01:26;;;;;;;28.23;16.02;;;;;;;4.16;84.38;101193.72;1087362;54;20031;-77
2021/11/06 02:02:28;;;;;;;35.63;17.02;;;;;;;4.19;84.15;101185.63;1087325;54;20050;-77
2021/11/06 02:03:34;;;;;;;47.65;16.73;;;;;;;4.24;84.35;101189.88;1087380;54;20031;-77
2021/11/06 02:04:38;;;;;;;31.00;15.40;;;;;;;4.31;84.10;101188.63;1088804;39;20658;-77
2021/11/06 02:05:42;;;;;;;33.78;14.80;;;;;;;4.33;84.05;101184.13;1087164;54;20041;-77
2021/11/06 02:06:44;;;;;;;35.58;16.55;;;;;;;4.32;83.97;101187.69;1087264;54;20038;-77
2021/11/06 02:07:49;;;;;;;35.28;16.98;;;;;;;4.28;84.18;101191.41;1087276;54;21050;-77
2021/11/06 02:08:50;;;;;;;58.45;19.88;;;;;;;4.11;84.49;101177.22;1087282;54;20100;-76
2021/11/06 02:09:54;;;;;;;66.05;20.80;;;;;;;4.08;85.00;101189.75;1087227;54;20037;-77
2021/11/06 02:10:58;;;;;;;42.60;18.63;;;;;;;4.07;84.68;101183.59;1087283;54;20030;-76
2021/11/06 02:12:00;;;;;;;37.08;18.83;;;;;;;4.03;85.29;101182.88;1087010;54;20037;-77
2021/11/06 02:13:05;;;;;;;43.97;18.98;;;;;;;4.04;85.38;101179.31;1087318;54;20034;-76
2021/11/06 02:14:09;;;;;;;55.95;22.58;;;;;;;3.93;85.78;101181.59;1089788;39;20737;-76
2021/11/06 02:15:14;;;;;;;67.47;24.00;;;;;;;3.75;86.41;101178.06;1089336;39;20595;-78
2021/11/06 02:16:19;;;;;;;60.88;23.58;;;;;;;3.72;86.65;101178.22;1087353;54;20046;-77
2021/11/06 02:17:20;;;;;;;50.65;21.92;;;;;;;3.69;86.82;101176.56;1087637;39;20528;-77
2021/11/06 02:18:24;;;;;;;59.72;23.73;;;;;;;3.64;86.98;101175.06;1087186;54;20037;-77
2021/11/06 02:19:27;;;;;;;69.88;23.05;;;;;;;3.55;87.26;101171.94;1087290;54;20038;-76
2021/11/06 02:20:34;;;;;;;54.72;23.35;;;;;;;3.57;87.48;101180.66;1087188;54;20042;-76
2021/11/06 02:21:39;;;;;;;41.80;20.83;;;;;;;3.64;87.08;101181.22;1087243;54;20022;-77
2021/11/06 02:22:44;;;;;;;73.65;24.17;;;;;;;3.56;87.72;101186.88;1087163;54;20100;-76
2021/11/06 02:23:48;;;;;;;75.20;24.17;;;;;;;3.54;87.80;101177.31;1089784;39;20563;-77
2021/11/06 02:24:53;;;;;;;61.25;22.95;;;;;;;3.49;87.65;101185.47;1087238;54;20053;-76
2021/11/06 02:25:54;;;;;;;77.57;26.65;;;;;;;3.46;87.65;101182.94;1087250;54;20038;-78
2021/11/06 02:26:58;;;;;;;74.70;27.88;;;;;;;3.46;88.05;101182.06;1091259;39;20755;-77
2021/11/06 02:28:00;;;;;;;95.68;30.40;;;;;;;3.33;88.18;101182.66;1087158;54;20030;-77
2021/11/06 02:29:07;;;;;;;78.38;27.60;;;;;;;3.35;88.01;101186.09;1087214;54;20042;-76
2021/11/06 02:30:12;;;;;;;87.60;32.05;;;;;;;3.30;88.13;101190.72;1087239;54;20034;-77
2021/11/06 02:31:16;;;;;;;65.00;27.88;;;;;;;3.32;88.33;101185.34;1087349;54;20035;-77
2021/11/06 02:32:18;;;;;;;71.70;26.98;;;;;;;3.37;88.03;101188.66;1087314;54;20054;-77
2021/11/06 02:33:22;;;;;;;44.50;24.10;;;;;;;3.51;87.84;101186.22;1087300;54;20050;-76
2021/11/06 02:34:24;;;;;;;36.60;20.88;;;;;;;3.63;87.41;101192.75;1087222;54;20030;-77
2021/11/06 02:35:28;;;;;;;31.30;20.10;;;;;;;3.73;86.95;101195.81;1087312;54;20109;-77
2021/11/06 02:36:30;;;;;;;27.83;17.95;;;;;;;3.85;86.74;101194.34;1087303;54;20031;-77
2021/11/06 02:37:37;;;;;;;43.05;21.70;;;;;;;3.76;87.16;101190.38;1087254;54;20039;-76
2021/11/06 02:38:39;;;;;;;64.50;23.02;;;;;;;3.60;87.35;101187.59;1087212;54;20046;-76
2021/11/06 02:39:43;;;;;;;59.90;22.30;;;;;;;3.62;87.17;101198.09;1087139;54;20065;-78
2021/11/06 02:40:45;;;;;;;61.03;23.40;;;;;;;3.58;87.36;101187.69;1087344;54;20038;-77
2021/11/06 02:41:49;;;;;;;56.13;21.33;;;;;;;3.61;87.26;101196.38;1087267;54;20037;-77
2021/11/06 02:42:50;;;;;;;71.57;24.27;;;;;;;3.53;87.47;101188.81;1087296;54;20030;-77
2021/11/06 02:43:55;;;;;;;61.05;24.00;;;;;;;3.47;87.82;101189.97;1087349;54;20307;-77
2021/11/06 02:44:57;;;;;;;81.07;22.80;;;;;;;3.44;87.82;101195.38;1088206;46;20034;-77
2021/11/06 02:46:01;;;;;;;78.03;24.02;;;;;;;3.39;88.25;101192.94;1087529;54;20045;-77
2021/11/06 02:47:06;;;;;;;60.53;23.25;;;;;;;3.35;88.30;101187.88;1087409;54;20031;-77
2021/11/06 02:48:10;;;;;;;90.32;24.23;;;;;;;3.33;88.38;101193.22;1087413;54;20034;-77
2021/11/06 02:49:11;;;;;;;57.92;20.67;;;;;;;3.38;88.06;101180.66;1087413;54;20031;-76
2021/11/06 02:50:15;;;;;;;45.65;20.02;;;;;;;3.55;87.67;101187.81;1087098;54;20120;-77
2021/11/06 02:51:17;;;;;;;31.08;17.15;;;;;;;3.70;87.52;101190.66;1087418;54;20026;-77
2021/11/06 02:52:22;;;;;;;66.43;20.80;;;;;;;3.65;87.04;101190.88;1087470;54;20030;-76
2021/11/06 02:53:26;;;;;;;27.73;16.33;;;;;;;3.79;87.19;101190.22;1087347;54;20034;-77
2021/11/06 02:54:31;;;;;;;63.85;18.90;;;;;;;3.74;87.10;101184.28;1087391;54;21434;-77
2021/11/06 02:55:35;;;;;;;61.08;18.80;;;;;;;3.71;87.04;101193.25;1087327;54;20042;-76
2021/11/06 02:56:37;;;;;;;52.00;18.42;;;;;;;3.71;87.15;101187.94;1087502;54;20030;-77
2021/11/06 02:57:41;;;;;;;78.13;21.55;;;;;;;3.53;87.22;101189.66;1088385;47;20034;-77
2021/11/06 02:58:43;;;;;;;66.75;20.95;;;;;;;3.51;87.49;101195.94;1087658;54;20038;-76
2021/11/06 02:59:49;;;;;;;82.65;23.88;;;;;;;3.43;87.87;101198.94;1087745;54;20035;-77
2021/11/06 03:00:51;;;;;;;83.03;22.42;;;;;;;3.35;87.97;101193.16;1087954;54;20030;-77
2021/11/06 03:01:55;;;;;;;46.17;20.08;;;;;;;3.41;87.95;101195.50;1087930;54;20026;-77
2021/11/06 03:02:57;;;;;;;44.60;19.80;;;;;;;3.53;87.88;101194.94;1088011;54;20022;-77
2021/11/06 03:04:01;;;;;;;59.30;20.50;;;;;;;3.59;87.59;101194.66;1089388;47;20099;-76
2021/11/06 03:05:05;;;;;;;38.40;16.88;;;;;;;3.65;87.35;101198.78;1087839;54;20033;-78
2021/11/06 03:06:09;;;;;;;47.28;18.67;;;;;;;3.66;87.28;101204.97;1087933;54;20035;-76
2021/11/06 03:07:11;;;;;;;40.20;17.23;;;;;;;3.71;87.20;101192.38;1087927;54;20038;-76
2021/11/06 03:08:15;;;;;;;64.18;20.48;;;;;;;3.64;87.40;101198.88;1087691;54;20038;-76
2021/11/06 03:09:19;;;;;;;40.53;18.65;;;;;;;3.67;87.39;101202.22;1087675;54;20042;-77
2021/11/06 03:10:23;;;;;;;37.92;19.50;;;;;;;3.66;87.60;101204.97;1087633;54;20042;-76
2021/11/06 03:11:25;;;;;;;47.20;18.75;;;;;;;3.73;87.25;101203.75;1087602;54;20030;-76
2021/11/06 03:12:29;;;;;;;47.72;18.50;;;;;;;3.66;87.36;101200.53;1087784;47;20037;-77
2021/11/06 03:13:31;;;;;;;49.90;21.20;;;;;;;3.47;88.00;101192.59;1087529;54;20030;-77
2021/11/06 03:14:37;;;;;;;64.53;21.20;;;;;;;3.42;88.22;101205.16;1087633;54;20035;-77
2021/11/06 03:15:39;;;;;;;43.25;19.65;;;;;;;3.51;88.22;101203.88;1087592;54;20038;-76
2021/11/06 03:16:45;;;;;;;37.72;17.83;;;;;;;3.61;87.82;101199.00;1088726;39;20610;-77
2021/11/06 03:17:46;;;;;;;47.05;17.80;;;;;;;3.61;87.67;101196.38;1087704;54;20019;-77
2021/11/06 03:18:52;;;;;;;46.22;17.42;;;;;;;3.67;87.61;101201.38;1087582;54;20053;-77
2021/11/06 03:19:53;;;;;;;47.72;20.35;;;;;;;3.55;87.74;101195.75;1087916;47;20034;-77
2021/11/06 03:20:57;;;;;;;58.13;21.60;;;;;;;3.51;87.86;101194.16;1087736;54;20030;-77
2021/11/06 03:21:59;;;;;;;64.28;21.27;;;;;;;3.50;88.13;101199.53;1087653;54;20034;-77
2021/11/06 03:23:03;;;;;;;49.80;19.75;;;;;;;3.50;88.24;101195.06;1087665;54;20104;-77
2021/11/06 03:24:05;;;;;;;51.72;20.67;;;;;;;3.48;88.16;101196.97;1087554;54;20046;-78
2021/11/06 03:25:12;;;;;;;64.85;20.98;;;;;;;3.43;88.63;101198.94;1087463;54;20037;-76
2021/11/06 03:26:14;;;;;;;51.17;19.67;;;;;;;3.45;88.29;101196.25;1087547;54;20771;-77
2021/11/06 03:27:19;;;;;;;48.28;20.63;;;;;;;3.41;88.61;101199.03;1087456;54;20114;-77
2021/11/06 03:28:20;;;;;;;68.93;20.88;;;;;;;3.41;88.57;101196.38;1087507;54;20034;-77
2021/11/06 03:29:25;;;;;;;50.22;20.15;;;;;;;3.40;88.52;101205.22;1087549;54;20628;-77
2021/11/06 03:30:26;;;;;;;46.70;20.20;;;;;;;3.48;88.67;101201.38;1087486;54;20042;-76
2021/11/06 03:31:31;;;;;;;51.72;19.92;;;;;;;3.55;88.47;101197.50;1087426;54;20057;-76
2021/11/06 03:32:32;;;;;;;51.65;19.92;;;;;;;3.61;88.16;101201.66;1087509;54;20030;-77
2021/11/06 03:33:37;;;;;;;24.77;16.50;;;;;;;3.73;88.05;101199.28;1087566;54;20042;-77
2021/11/06 03:34:41;;;;;;;24.10;16.08;;;;;;;3.84;87.76;101198.81;1087382;54;20037;-77
2021/11/06 03:35:43;;;;;;;24.83;14.20;;;;;;;3.93;87.35;101200.13;1087411;54;20034;-76
2021/11/06 03:36:47;;;;;;;28.80;15.20;;;;;;;3.97;87.18;101208.81;1088297;39;21081;-77
2021/11/06 03:37:50;;;;;;;36.95;17.60;;;;;;;3.98;86.61;101210.50;1087496;54;20034;-77
2021/11/06 03:38:54;;;;;;;27.27;15.63;;;;;;;3.97;86.58;101209.66;1087379;54;20030;-77
2021/11/06 03:39:57;;;;;;;22.70;14.25;;;;;;;4.03;86.43;101208.50;1087390;54;20038;-77
2021/11/06 03:41:04;;;;;;;21.88;13.80;;;;;;;4.07;86.57;101210.06;1087458;54;20031;-77
2021/11/06 03:42:06;;;;;;;27.15;14.10;;;;;;;4.11;86.35;101210.78;1087490;54;20030;-76
2021/11/06 03:43:10;;;;;;;24.70;14.05;;;;;;;4.13;86.14;101216.84;1087551;47;21175;-77
2021/11/06 03:44:12;;;;;;;23.05;14.65;;;;;;;4.14;86.02;101203.56;1087410;54;20986;-76
2021/11/06 03:45:17;;;;;;;22.38;14.73;;;;;;;4.15;85.89;101214.97;1087376;54;20058;-76
2021/11/06 03:46:19;;;;;;;25.73;15.18;;;;;;;4.14;86.04;101206.19;1087427;54;20057;-76
2021/11/06 03:47:25;;;;;;;20.30;13.07;;;;;;;4.19;85.80;101208.63;1087347;54;20050;-77
2021/11/06 03:48:28;;;;;;;27.20;14.65;;;;;;;4.08;86.12;101209.13;1087223;54;20042;-77
2021/11/06 03:49:32;;;;;;;39.90;15.77;;;;;;;4.05;86.45;101211.94;1087425;54;20090;-76
2021/11/06 03:50:34;;;;;;;32.45;15.25;;;;;;;4.06;86.42;101209.22;1087126;54;20030;-77
2021/11/06 03:51:38;;;;;;;22.25;14.18;;;;;;;4.14;86.22;101214.13;1088241;47;20035;-77
2021/11/06 03:52:40;;;;;;;20.77;13.85;;;;;;;4.17;86.36;101216.63;1087346;54;20035;-79
2021/11/06 03:53:44;;;;;;;27.48;14.32;;;;;;;4.19;86.19;101209.47;1087463;54;20031;-77
2021/11/06 03:54:48;;;;;;;25.98;13.15;;;;;;;4.27;86.36;101210.88;1087284;54;20023;-77
2021/11/06 03:55:52;;;;;;;21.55;13.35;;;;;;;4.30;86.12;101211.56;1087363;54;20042;-78
2021/11/06 03:56:56;;;;;;;17.90;11.77;;;;;;;4.36;86.02;101210.41;1087417;54;20050;-77
2021/11/06 03:58:00;;;;;;;21.98;13.02;;;;;;;4.41;85.76;101208.41;1087358;54;20035;-77
2021/11/06 03:59:04;;;;;;;22.80;13.65;;;;;;;4.40;85.58;101201.41;1087414;54;20038;-77
2021/11/06 04:00:10;;;;;;;19.50;12.30;;;;;;;4.43;85.62;101210.97;1087258;54;20031;-77
2021/11/06 04:01:12;;;;;;;18.63;12.18;;;;;;;4.47;85.58;101208.09;1087309;54;20038;-78
2021/11/06 04:02:16;;;;;;;20.42;12.45;;;;;;;4.48;85.63;101204.50;1087252;54;20042;-76
2021/11/06 04:03:18;;;;;;;22.98;12.80;;;;;;;4.46;85.42;101211.66;1087112;54;20041;-76
2021/11/06 04:04:22;;;;;;;25.95;13.48;;;;;;;4.46;85.40;101209.03;1087166;54;20034;-76
2021/11/06 04:05:24;;;;;;;19.00;13.10;;;;;;;4.47;85.35;101202.78;1087539;54;20037;-77
2021/11/06 04:06:28;;;;;;;22.23;12.90;;;;;;;4.50;85.23;101202.66;1088166;46;20042;-77
2021/11/06 04:07:30;;;;;;;18.25;12.73;;;;;;;4.53;85.30;101202.47;1087718;54;20037;-77
2021/11/06 04:08:34;;;;;;;20.85;14.23;;;;;;;4.50;85.17;101202.66;1088379;46;20031;-77
2021/11/06 04:09:36;;;;;;;19.73;12.13;;;;;;;4.53;85.41;101202.47;1087827;54;20038;-77
2021/11/06 04:10:40;;;;;;;18.70;12.48;;;;;;;4.57;85.37;101203.22;1087799;54;20041;-77
2021/11/06 04:11:41;;;;;;;21.40;11.82;;;;;;;4.57;85.05;101202.34;1087607;54;20038;-77
2021/11/06 04:12:48;;;;;;;19.08;13.05;;;;;;;4.58;85.08;101204.88;1087816;54;20743;-77
2021/11/06 04:13:50;;;;;;;21.30;11.88;;;;;;;4.63;85.14;101202.03;1087789;54;20042;-76
2021/11/06 04:14:54;;;;;;;23.85;13.48;;;;;;;4.61;84.90;101203.91;1087733;54;20038;-76
2021/11/06 04:15:56;;;;;;;26.38;14.07;;;;;;;4.51;84.81;101199.06;1087597;54;20045;-78
2021/11/06 04:17:00;;;;;;;36.58;15.25;;;;;;;4.49;85.09;101211.53;1087492;54;20030;-77
2021/11/06 04:18:02;;;;;;;21.95;13.52;;;;;;;4.52;84.99;101214.03;1087499;54;20053;-76
2021/11/06 04:19:10;;;;;;;28.58;14.70;;;;;;;4.45;84.82;101204.66;1087508;54;20810;-77
2021/11/06 04:20:12;;;;;;;31.25;13.88;;;;;;;4.43;85.02;101206.56;1087556;54;20058;-76
2021/11/06 04:21:16;;;;;;;18.90;13.02;;;;;;;4.48;85.16;101207.16;1087588;54;20034;-77
2021/11/06 04:22:18;;;;;;;21.17;13.82;;;;;;;4.48;85.10;101215.09;1087564;54;20058;-77
2021/11/06 04:23:22;;;;;;;18.63;11.93;;;;;;;4.53;84.90;101222.81;1087451;54;20031;-77
2021/11/06 04:24:24;;;;;;;19.17;13.25;;;;;;;4.50;84.97;101210.59;1087536;54;20054;-76
2021/11/06 04:25:28;;;;;;;53.22;18.23;;;;;;;4.16;85.96;101212.25;1087562;54;20430;-77
2021/11/06 04:26:30;;;;;;;35.63;15.88;;;;;;;4.24;86.35;101206.59;1087565;54;20046;-76
2021/11/06 04:27:34;;;;;;;43.85;15.43;;;;;;;4.11;86.33;101208.13;1087607;54;20038;-77
2021/11/06 04:28:45;;;;;;;42.72;16.05;;;;;;;4.07;87.05;101220.63;1087461;54;20041;-77
2021/11/06 04:29:49;;;;;;;41.05;14.85;;;;;;;4.13;86.67;101215.06;1090564;39;20317;-78
2021/11/06 04:30:53;;;;;;;38.58;15.73;;;;;;;4.09;86.62;101216.13;1087608;54;20091;-77
2021/11/06 04:31:55;;;;;;;46.55;16.65;;;;;;;3.99;87.31;101212.22;1087624;54;20038;-77
2021/11/06 04:32:59;;;;;;;20.17;14.27;;;;;;;4.19;86.63;101220.06;1087579;54;20038;-77
2021/11/06 04:34:03;;;;;;;31.40;15.60;;;;;;;4.11;86.79;101218.72;1087566;54;20034;-77
2021/11/06 04:35:05;;;;;;;25.35;13.07;;;;;;;4.21;86.74;101218.19;1087481;54;20045;-78
2021/11/06 04:36:10;;;;;;;30.30;15.23;;;;;;;4.09;86.75;101213.50;1087483;54;20041;-77
2021/11/06 04:37:12;;;;;;;23.73;14.40;;;;;;;4.21;86.81;101212.03;1087541;54;20098;-77
2021/11/06 04:38:16;;;;;;;31.13;14.15;;;;;;;4.22;86.71;101211.97;1087522;54;20116;-77
2021/11/06 04:39:17;;;;;;;35.28;16.25;;;;;;;4.08;86.95;101211.78;1087452;54;20038;-77
2021/11/06 04:40:22;;;;;;;22.58;12.93;;;;;;;4.21;86.65;101223.50;1087640;54;20037;-77
2021/11/06 04:41:23;;;;;;;22.10;13.07;;;;;;;4.29;86.31;101219.59;1087793;54;20030;-76
2021/11/06 04:42:27;;;;;;;20.65;12.50;;;;;;;4.34;85.99;101222.91;1087867;54;20086;-77
2021/11/06 04:43:29;;;;;;;20.90;10.55;;;;;;;4.40;86.11;101227.00;1087806;54;20038;-79
2021/11/06 04:44:36;;;;;;;29.05;12.20;;;;;;;4.29;86.06;101219.59;1088066;54;20030;-77
2021/11/06 04:45:37;;;;;;;26.52;14.57;;;;;;;4.15;86.43;101222.91;1088007;54;20042;-78
2021/11/06 04:46:42;;;;;;;33.13;16.13;;;;;;;4.03;87.13;101229.66;1087981;54;20030;-77
2021/11/06 04:47:43;;;;;;;34.35;14.52;;;;;;;3.98;87.47;101223.72;1087783;54;20046;-76
2021/11/06 04:48:48;;;;;;;31.38;15.32;;;;;;;3.94;87.83;101225.66;1087513;54;20026;-78
2021/11/06 04:50:00;;;;;;;36.55;14.63;;;;;;;3.85;88.06;101229.63;1088956;39;20572;-78
2021/11/06 04:51:14;;;;;;;32.83;14.35;;;;;;;3.88;88.02;101229.47;1087119;54;20086;-77
2021/11/06 04:52:20;;;;;;;36.05;14.52;;;;;;;3.84;88.33;101230.53;1087530;54;20051;-76